Weather at Nyce Airport

Public forecast

Using degrees Fahrenheit for public forecast. Weather courtesy of forecast.io.

Closest aviation weather report (METAR) to Nyce Airport

Closest report is St. Mary's County Regional Airport, 14.9 nm (27.6 km) E.

(retrieved 0 seconds ago)

Closest aviation forecast (TAF) to Nyce Airport

Forecast is more than 12 hours old.

Closest forecast is Davison Army Air Field, 26.5 nm (49.0 km) NW.

2024/06/14 20:00 (retrieved 2 days ago)

TAF KDAA 142000Z 1420/1602 16009KT 9999 VCSH SCT050 BKN100 QNH2980INS BECMG 1420/1421 29007KT 8000 -SHRA VCTS SCT035CB BKN060 OVC100 QNH2978INS TEMPO 1422/1502 VRB15G25KT 4800 -TSRA SCT025CB OVC035 BECMG 1505/1506 34009KT 9999 NSW FEW020 BKN080 QNH2985INS BECMG 1508/1509 35009KT 9999 FEW030 SCT060 QNH2992INS BECMG 1514/1515 35010G15KT 9999 FEW050 SCT250 QNH3002INS TX33/1420Z TN19/1509Z LAST NO AMDS AFT 1501 NEXT 1712